createdAt,value
2019-03-16T00:02:55.000Z,6.80
2019-03-16T00:07:59.336Z,7.67
2019-03-16T00:13:03.743Z,8.13
2019-03-16T00:18:07.942Z,6.57
2019-03-16T00:23:12.182Z,6.83
2019-03-16T00:28:16.301Z,6.70
2019-03-16T00:33:20.543Z,6.20
2019-03-16T00:38:24.944Z,5.63
2019-03-16T00:43:29.061Z,5.93
2019-03-16T00:48:33.184Z,6.17
2019-03-16T00:53:37.622Z,6.77
2019-03-16T00:58:41.801Z,5.30
2019-03-16T01:03:45.903Z,6.23
2019-03-16T01:08:50.117Z,6.03
2019-03-16T01:13:54.394Z,5.67
2019-03-16T01:18:58.618Z,6.47
2019-03-16T01:24:02.783Z,7.70
2019-03-16T01:29:07.040Z,8.03
2019-03-16T01:34:11.441Z,6.67
2019-03-16T01:39:15.720Z,5.87
2019-03-16T01:44:19.904Z,8.47
2019-03-16T01:49:24.102Z,7.60
2019-03-16T01:54:28.315Z,7.13
2019-03-16T01:59:32.640Z,7.33
2019-03-16T02:04:36.801Z,8.27
2019-03-16T02:09:41.101Z,6.67
2019-03-16T02:14:45.240Z,5.60
2019-03-16T02:19:49.563Z,6.03
2019-03-16T02:24:53.723Z,5.87
2019-03-16T02:29:57.929Z,6.40
2019-03-16T02:35:02.098Z,5.83
2019-03-16T02:40:06.764Z,6.17
2019-03-16T02:45:11.058Z,5.83
2019-03-16T02:50:15.334Z,4.97
2019-03-16T02:55:19.520Z,5.13
2019-03-16T03:00:23.751Z,4.60
2019-03-16T03:05:27.957Z,5.70
2019-03-16T03:10:32.087Z,5.67
2019-03-16T03:15:36.323Z,5.57
2019-03-16T03:20:40.447Z,5.80
2019-03-16T03:25:44.640Z,5.67
2019-03-16T03:30:48.956Z,4.03
2019-03-16T03:35:53.202Z,4.83
2019-03-16T03:41:01.477Z,4.50
2019-03-16T03:46:03.323Z,3.97
2019-03-16T03:51:07.572Z,5.10
2019-03-16T03:56:11.903Z,5.00
2019-03-16T04:01:16.146Z,5.17
2019-03-16T04:06:20.476Z,4.73
2019-03-16T04:11:24.660Z,4.60
2019-03-16T04:16:28.786Z,3.70
2019-03-16T04:21:32.983Z,4.83
2019-03-16T04:26:37.140Z,5.13
2019-03-16T04:31:41.255Z,4.67
2019-03-16T04:36:45.467Z,5.33
2019-03-16T04:41:49.778Z,4.13
2019-03-16T04:46:53.941Z,5.87
2019-03-16T04:51:58.340Z,4.20
2019-03-16T04:57:02.643Z,4.08
2019-03-16T05:02:07.016Z,3.50
2019-03-16T05:07:11.186Z,3.03
2019-03-16T05:12:15.300Z,4.23
2019-03-16T05:17:19.479Z,3.70
2019-03-16T05:22:23.661Z,4.40
2019-03-16T05:27:27.782Z,4.83
2019-03-16T05:32:32.027Z,4.33
2019-03-16T05:37:36.276Z,4.93
2019-03-16T05:42:40.644Z,4.67
2019-03-16T05:47:44.802Z,4.43
2019-03-16T05:52:48.964Z,4.37
2019-03-16T05:57:53.342Z,4.97
2019-03-16T06:02:57.502Z,5.17
2019-03-16T06:08:01.763Z,5.47
2019-03-16T06:13:06.041Z,4.90
2019-03-16T06:18:13.098Z,5.07
2019-03-16T06:23:16.062Z,4.90
2019-03-16T06:28:20.202Z,4.67
2019-03-16T06:33:24.365Z,4.40
2019-03-16T06:38:28.541Z,4.60
2019-03-16T06:43:32.720Z,4.53
2019-03-16T06:48:36.881Z,4.30
2019-03-16T06:53:41.024Z,4.13
2019-03-16T06:58:45.223Z,5.53
2019-03-16T07:03:49.562Z,4.20
2019-03-16T07:08:53.740Z,4.40
2019-03-16T07:13:57.920Z,5.17
2019-03-16T07:19:02.082Z,5.00
2019-03-16T07:24:06.324Z,5.87
2019-03-16T07:29:10.521Z,5.43
2019-03-16T07:34:14.700Z,6.40
2019-03-16T07:39:18.822Z,3.80
2019-03-16T07:44:23.100Z,5.47
2019-03-16T07:49:27.284Z,5.70
2019-03-16T07:54:31.622Z,5.67
2019-03-16T07:59:37.236Z,5.33
2019-03-16T08:04:43.521Z,4.97
2019-03-16T08:09:47.443Z,6.17
2019-03-16T08:14:51.611Z,6.67
2019-03-16T08:19:55.803Z,6.60
2019-03-16T08:25:00.337Z,7.53
2019-03-16T08:30:04.999Z,6.60
2019-03-16T08:35:10.483Z,6.67
2019-03-16T08:40:14.651Z,6.03
2019-03-16T08:45:19.022Z,6.77
2019-03-16T08:50:23.123Z,5.17
2019-03-16T08:55:27.560Z,5.93
2019-03-16T09:00:31.759Z,5.67
2019-03-16T09:05:35.931Z,5.53
2019-03-16T09:10:40.122Z,5.00
2019-03-16T09:15:44.303Z,5.60
2019-03-16T09:20:49.442Z,6.20
2019-03-16T09:25:54.000Z,6.60
2019-03-16T09:30:58.205Z,5.30
2019-03-16T09:36:04.983Z,6.03
2019-03-16T09:41:09.161Z,5.00
2019-03-16T09:46:13.381Z,5.57
2019-03-16T09:51:17.522Z,5.83
2019-03-16T09:56:21.681Z,5.73
2019-03-16T10:01:25.920Z,5.03
2019-03-16T10:06:30.060Z,5.37
2019-03-16T10:11:34.250Z,6.33
2019-03-16T10:16:38.420Z,6.57
2019-03-16T10:21:42.563Z,6.57
2019-03-16T10:26:46.982Z,6.90
2019-03-16T10:31:51.141Z,6.60
2019-03-16T10:36:55.302Z,5.40
2019-03-16T10:42:02.566Z,6.00
2019-03-16T10:47:06.900Z,5.93
2019-03-16T10:52:11.120Z,6.00
2019-03-16T10:57:15.420Z,6.03
2019-03-16T11:02:21.803Z,5.13
2019-03-16T11:07:26.143Z,6.27
2019-03-16T11:12:31.599Z,6.13
2019-03-16T11:17:35.774Z,6.40
2019-03-16T11:22:39.939Z,6.57
2019-03-16T11:27:44.123Z,5.73
2019-03-16T11:32:48.586Z,7.77
2019-03-16T11:37:52.900Z,5.77
2019-03-16T11:42:57.082Z,7.20
2019-03-16T11:48:01.372Z,6.33
2019-03-16T11:53:05.737Z,5.90
2019-03-16T11:58:13.106Z,5.60
2019-03-16T12:03:17.241Z,6.33
2019-03-16T12:08:21.553Z,6.57
2019-03-16T12:13:25.760Z,8.13
2019-03-16T12:18:29.946Z,6.70
2019-03-16T12:23:34.277Z,6.33
2019-03-16T12:28:41.495Z,5.03
2019-03-16T12:33:45.644Z,7.23
2019-03-16T12:38:49.863Z,6.13
2019-03-16T12:43:54.023Z,6.33
2019-03-16T12:48:58.341Z,8.40
2019-03-16T12:54:02.569Z,6.00
2019-03-16T12:59:10.784Z,5.97
2019-03-16T13:04:12.603Z,6.17
2019-03-16T13:09:16.863Z,6.67
2019-03-16T13:14:21.003Z,6.70
2019-03-16T13:19:25.181Z,7.53
2019-03-16T13:24:29.321Z,6.97
2019-03-16T13:29:33.700Z,6.83
2019-03-16T13:34:37.903Z,7.77
2019-03-16T13:39:42.036Z,6.30
2019-03-16T13:44:48.523Z,7.70
2019-03-16T13:49:52.924Z,5.93
2019-03-16T13:54:57.123Z,7.57
2019-03-16T14:00:11.288Z,7.00
2019-03-16T14:05:10.161Z,7.77
2019-03-16T14:10:16.980Z,7.23
2019-03-16T14:15:21.182Z,8.37
2019-03-16T14:20:25.362Z,7.30
2019-03-16T14:25:29.897Z,9.07
2019-03-16T14:30:41.038Z,9.43
2019-03-16T14:35:40.008Z,8.17
2019-03-16T14:40:44.223Z,8.80
2019-03-16T14:45:49.153Z,8.43
2019-03-16T14:50:54.582Z,8.90
2019-03-16T14:55:58.762Z,9.57
2019-03-16T15:01:03.362Z,7.63
2019-03-16T15:06:07.461Z,9.37
2019-03-16T15:11:11.683Z,9.77
2019-03-16T15:16:15.844Z,8.70
2019-03-16T15:21:20.335Z,9.47
2019-03-16T15:26:24.494Z,9.33
2019-03-16T15:31:28.561Z,8.80
2019-03-16T15:36:34.653Z,9.73
2019-03-16T15:41:38.801Z,9.73
2019-03-16T15:46:42.994Z,10.97
2019-03-16T15:51:47.483Z,9.33
2019-03-16T15:56:51.658Z,11.10
2019-03-16T16:01:55.875Z,9.33
2019-03-16T16:07:00.075Z,7.90
2019-03-16T16:12:04.596Z,7.20
2019-03-16T16:17:10.577Z,8.70
2019-03-16T16:22:17.071Z,7.30
2019-03-16T16:27:23.850Z,7.40
2019-03-16T16:32:26.611Z,5.83
2019-03-16T16:37:30.791Z,4.90
2019-03-16T16:42:35.093Z,5.43
2019-03-16T16:47:39.272Z,5.90
2019-03-16T16:52:46.112Z,6.57
2019-03-16T16:57:50.619Z,5.93
2019-03-16T17:02:54.973Z,6.03
2019-03-16T17:15:33.155Z,6.80
2019-03-16T17:20:37.499Z,11.63
2019-03-16T17:25:41.698Z,4.53
2019-03-16T17:30:45.859Z,4.67
2019-03-16T17:35:51.726Z,4.70
2019-03-16T17:40:55.908Z,4.23
2019-03-16T17:46:00.187Z,4.67
2019-03-16T17:51:04.354Z,4.87
2019-03-16T17:56:08.590Z,2.97
2019-03-16T18:01:15.724Z,3.63
2019-03-16T18:06:19.790Z,3.87
2019-03-16T18:11:24.017Z,4.80
2019-03-16T18:16:28.415Z,5.23
2019-03-16T18:21:32.590Z,4.70
2019-03-16T18:26:36.712Z,3.60
2019-03-16T18:31:40.815Z,3.93
2019-03-16T18:36:44.978Z,3.90
2019-03-16T18:41:49.118Z,4.80
2019-03-16T18:46:53.385Z,2.67
2019-03-16T18:51:57.595Z,4.07
2019-03-16T18:57:01.836Z,2.27
2019-03-16T19:02:05.972Z,1.70
2019-03-16T19:07:10.105Z,2.80
2019-03-16T19:12:14.235Z,3.43
2019-03-16T19:17:18.328Z,2.53
2019-03-16T19:22:22.969Z,1.80
2019-03-16T19:27:27.155Z,2.03
2019-03-16T19:32:34.017Z,2.33
2019-03-16T19:37:39.956Z,1.80
2019-03-16T19:42:46.562Z,2.97
2019-03-16T19:47:52.907Z,2.30
2019-03-16T19:52:56.977Z,2.80
2019-03-16T19:58:01.226Z,3.30
2019-03-16T20:03:05.353Z,2.73
2019-03-16T20:08:09.530Z,3.87
2019-03-16T20:13:13.636Z,2.50
2019-03-16T20:18:17.730Z,2.80
2019-03-16T20:23:22.053Z,2.17
2019-03-16T20:28:26.176Z,3.20
2019-03-16T20:33:30.343Z,4.17
2019-03-16T20:38:34.497Z,4.17
2019-03-16T20:43:38.747Z,3.60
2019-03-16T20:48:43.162Z,4.97
2019-03-16T20:53:50.252Z,4.07
2019-03-16T20:58:54.510Z,3.13
2019-03-16T21:03:58.702Z,2.60
2019-03-16T21:09:03.736Z,4.77
2019-03-16T21:14:08.107Z,3.63
2019-03-16T21:19:12.214Z,3.10
2019-03-16T21:24:16.509Z,3.43
2019-03-16T21:29:20.888Z,2.43
2019-03-16T21:34:24.975Z,2.90
2019-03-16T21:39:29.020Z,2.73
2019-03-16T21:44:34.931Z,2.40
2019-03-16T21:49:39.166Z,2.20
2019-03-16T21:54:43.238Z,3.83
2019-03-16T21:59:47.465Z,5.10
2019-03-16T22:04:51.665Z,3.17
2019-03-16T22:09:55.826Z,2.80
2019-03-16T22:14:59.921Z,3.73
2019-03-16T22:20:04.588Z,3.53
2019-03-16T22:25:08.881Z,3.90
2019-03-16T22:30:13.307Z,2.50
2019-03-16T22:35:17.495Z,3.30
2019-03-16T22:40:21.709Z,3.03
2019-03-16T22:45:26.945Z,3.73
2019-03-16T22:50:31.074Z,2.87
2019-03-16T22:55:35.258Z,2.77
2019-03-16T23:00:40.277Z,2.70
2019-03-16T23:05:44.375Z,2.27
2019-03-16T23:10:48.552Z,2.43
2019-03-16T23:15:52.712Z,2.67
2019-03-16T23:20:56.925Z,4.00
2019-03-16T23:26:01.247Z,1.43
2019-03-16T23:31:05.443Z,2.13
2019-03-16T23:36:09.534Z,3.00
2019-03-16T23:41:13.736Z,3.03
2019-03-16T23:46:17.943Z,2.93
2019-03-16T23:51:21.966Z,3.33
2019-03-16T23:56:26.399Z,4.23
